< Typhoon 199227 1992 Season Typhoon 199229 >
Typhoon 199228 (ELSIE)
General InformationTrack Information on Google MapsDetailed Wind InformationList of All Images || Disaster Info.ResourceGoogle EarthGE AnimationAtom FeedGeoJSON
Detalied Best Track (Time Zone = UTC)
Year Month Day Hour Lat. Long. Pressure (hPa) Wind (kt) Class Image Chart
1992 10 29 06 8.0 151.0 1002 0 2 Image Chart
1992 10 29 12 7.3 150.8 1002 0 2 Image Chart
1992 10 29 18 7.7 150.5 1000 0 2 Image Chart
1992 10 30 00 8.1 150.6 998 35 3 Image Chart
1992 10 30 06 8.5 150.7 996 40 3 Image Chart
1992 10 30 12 8.9 150.4 990 50 4 Image Chart
1992 10 30 18 9.3 149.8 985 50 4 Image Chart
1992 10 31 00 9.6 149.1 980 55 4 Image Chart
1992 10 31 06 9.7 148.3 975 60 4 Image Chart
1992 10 31 12 9.7 147.6 975 60 4 Image Chart
1992 10 31 18 9.6 147.2 975 60 4 Image Chart
1992 11 1 00 9.6 146.9 970 65 5 Image Chart
1992 11 1 06 9.8 146.6 970 65 5 Image Chart
1992 11 1 12 10.3 146.2 970 65 5 Image Chart
1992 11 1 18 10.7 145.9 970 65 5 Image Chart
1992 11 2 00 11.1 145.6 970 65 5 Image Chart
1992 11 2 06 11.4 145.4 965 70 5 Image Chart
1992 11 2 12 11.7 145.2 965 70 5 Image Chart
1992 11 2 18 12.2 144.8 965 70 5 Image Chart
1992 11 3 00 12.8 143.9 965 70 5 Image Chart
1992 11 3 06 13.2 143.2 955 75 5 Image Chart
1992 11 3 12 13.6 142.4 950 80 5 Image Chart
1992 11 3 18 14.0 141.6 940 85 5 Image Chart
1992 11 4 00 14.4 140.4 930 90 5 Image Chart
1992 11 4 06 14.8 139.4 925 95 5 Image Chart
1992 11 4 12 15.5 138.3 925 95 5 Image Chart
1992 11 4 18 16.0 137.2 920 100 5 Image Chart
1992 11 5 00 16.9 136.1 915 100 5 Image Chart
1992 11 5 06 17.9 135.1 915 100 5 Image Chart
1992 11 5 12 18.9 134.3 915 100 5 Image Chart
1992 11 5 18 20.3 133.8 915 100 5 Image Chart
1992 11 6 00 21.7 133.9 920 100 5 Image Chart
1992 11 6 06 23.3 134.5 925 95 5 Image Chart
1992 11 6 12 25.3 135.7 935 90 5 Image Chart
1992 11 6 18 27.7 137.1 945 85 5 Image Chart
1992 11 6 21 28.5 137.7 950 80 5 Image Chart
1992 11 7 00 29.4 138.4 955 75 5 Image Chart
1992 11 7 03 30.0 139.3 960 70 5 Image Chart
1992 11 7 06 30.5 140.4 965 70 5 Image Chart
1992 11 7 09 31.0 141.5 970 65 5 Image Chart
1992 11 7 12 31.5 142.7 975 60 4 Image Chart
1992 11 7 18 32.4 144.4 986 0 6 Image Chart
1992 11 8 00 33.3 146.3 992 0 6 Image Chart
1992 11 8 06 33.8 148.8 998 0 6 Image Chart
1992 11 8 12 34.0 151.3 1002 0 6 Image Chart
1992 11 8 18 34.0 153.9 1004 0 6 Image Chart
1992 11 9 00 34.2 156.3 1008 0 6 Image Chart
1992 11 9 06 34.8 158.9 1012 0 6 Image Chart
Japan Meteorological Agency Best Track Data | Correction Date : 1992-12-25
< Typhoon 199227 1992 Season Typhoon 199229 >

Help